Time;durP1;ratioP1;P1;durP2;ratioP2;P2;SDS_P1;SDS_P2;PMS_P1;PMS_P2;Temp;Humidity;BMP_temperature;BMP_pressure;BME280_temperature;BME280_humidity;BME280_pressure;Samples;Min_cycle;Max_cycle;Signal;HPM_P1;HPM_P2
2023/01/31 00:02:04;;;;;;;11.50;5.53;;;9.40;96.70;;;;;;4984842;28;20046;-74
2023/01/31 00:04:32;;;;;;;13.93;5.35;;;9.30;96.70;;;;;;4984268;28;20045;-75
2023/01/31 00:07:00;;;;;;;8.73;4.57;;;9.20;96.70;;;;;;4985593;28;20487;-75
2023/01/31 00:09:28;;;;;;;10.35;4.50;;;9.20;96.70;;;;;;4982448;28;20046;-75
2023/01/31 00:11:58;;;;;;;12.88;5.00;;;9.20;96.70;;;;;;4983993;28;20049;-75
2023/01/31 00:14:26;;;;;;;8.70;4.60;;;9.20;96.70;;;;;;4985735;28;20042;-75
2023/01/31 00:16:54;;;;;;;13.00;4.95;;;9.20;96.70;;;;;;4984593;28;20058;-75
2023/01/31 00:19:23;;;;;;;9.57;4.43;;;9.20;96.70;;;;;;4982598;28;20450;-76
2023/01/31 00:21:52;;;;;;;15.82;4.97;;;9.10;96.70;;;;;;4980367;28;20042;-76
2023/01/31 00:24:21;;;;;;;12.02;3.45;;;9.00;96.70;;;;;;4984840;28;20046;-75
2023/01/31 00:26:55;;;;;;;8.88;4.25;;;9.00;96.70;;;;;;4985683;28;20109;-75
2023/01/31 00:29:27;;;;;;;8.73;3.88;;;9.00;96.70;;;;;;4984016;28;20504;-75
2023/01/31 00:31:55;;;;;;;8.30;5.85;;;8.90;96.70;;;;;;4983941;28;20741;-75
2023/01/31 00:34:24;;;;;;;9.77;4.85;;;8.90;96.70;;;;;;4976924;28;20069;-75
2023/01/31 00:36:52;;;;;;;8.15;4.18;;;8.90;96.70;;;;;;4986074;28;20602;-75
2023/01/31 00:39:20;;;;;;;11.48;4.65;;;8.80;96.70;;;;;;4981299;28;20050;-75
2023/01/31 00:41:48;;;;;;;9.40;3.60;;;8.70;96.70;;;;;;4983556;28;20093;-75
2023/01/31 00:44:17;;;;;;;9.38;4.38;;;8.70;96.70;;;;;;4977066;28;20043;-75
2023/01/31 00:46:46;;;;;;;13.38;5.35;;;8.80;96.70;;;;;;4977260;28;20045;-75
2023/01/31 00:49:15;;;;;;;9.40;5.07;;;8.70;96.70;;;;;;4983824;28;20066;-76
2023/01/31 00:51:43;;;;;;;10.95;5.20;;;8.60;96.70;;;;;;4983837;28;20183;-75
2023/01/31 00:54:12;;;;;;;8.88;5.00;;;8.50;96.70;;;;;;4976942;28;20909;-75
2023/01/31 00:56:40;;;;;;;9.35;4.50;;;8.50;96.70;;;;;;4976927;28;20117;-75
2023/01/31 00:59:08;;;;;;;9.23;5.35;;;8.50;96.70;;;;;;4984428;28;20045;-77
2023/01/31 01:01:37;;;;;;;9.95;5.03;;;8.40;96.70;;;;;;4983747;28;20653;-75
2023/01/31 01:04:07;;;;;;;10.77;4.75;;;8.40;96.70;;;;;;4982633;28;20050;-75
2023/01/31 01:06:38;;;;;;;13.23;5.70;;;8.30;96.70;;;;;;4983281;28;20756;-76
2023/01/31 01:09:07;;;;;;;8.75;5.50;;;8.30;96.70;;;;;;4983289;28;20534;-75
2023/01/31 01:11:35;;;;;;;11.68;5.18;;;8.20;96.70;;;;;;4982298;28;20061;-75
2023/01/31 01:14:03;;;;;;;11.88;5.70;;;8.20;96.70;;;;;;4979923;28;20104;-76
2023/01/31 01:16:34;;;;;;;11.52;6.60;;;8.20;96.70;;;;;;4983549;28;20061;-75
2023/01/31 01:19:05;;;;;;;14.27;5.90;;;8.10;96.70;;;;;;4983197;28;20061;-76
2023/01/31 01:21:39;;;;;;;13.73;6.22;;;8.10;96.70;;;;;;4983845;28;20039;-76
2023/01/31 01:24:12;;;;;;;10.68;5.82;;;8.00;96.70;;;;;;4974568;28;20482;-75
2023/01/31 01:26:41;;;;;;;11.63;5.43;;;8.00;96.70;;;;;;4984054;28;20126;-75
2023/01/31 01:29:10;;;;;;;9.73;5.18;;;8.00;96.70;;;;;;4982838;28;20050;-75
2023/01/31 01:31:39;;;;;;;10.32;5.05;;;8.00;96.70;;;;;;4982248;28;20419;-75
2023/01/31 01:34:10;;;;;;;12.40;5.05;;;8.00;96.70;;;;;;4977800;28;20046;-75
2023/01/31 01:36:41;;;;;;;9.07;4.75;;;7.90;96.70;;;;;;4981948;28;20097;-75
2023/01/31 01:39:11;;;;;;;11.80;5.50;;;8.00;96.70;;;;;;4982397;28;20045;-76
2023/01/31 01:41:41;;;;;;;10.63;4.72;;;7.90;96.70;;;;;;4980985;28;20358;-75
2023/01/31 01:44:48;;;;;;;12.13;4.80;;;7.90;96.70;;;;;;4981572;28;20084;-76
2023/01/31 01:47:22;;;;;;;11.57;5.50;;;7.90;96.70;;;;;;4976788;28;20042;-72
2023/01/31 01:49:54;;;;;;;11.38;4.80;;;7.90;96.70;;;;;;4966078;28;20160;-71
2023/01/31 01:52:25;;;;;;;10.38;4.45;;;7.80;96.70;;;;;;4981478;28;20057;-72
2023/01/31 01:54:58;;;;;;;11.95;5.45;;;7.80;96.70;;;;;;4979301;28;20066;-71
2023/01/31 01:57:30;;;;;;;9.73;4.88;;;7.80;96.70;;;;;;4981773;28;20149;-71
2023/01/31 02:00:08;;;;;;;12.75;4.70;;;7.70;96.70;;;;;;4983846;28;20049;-72
2023/01/31 02:02:42;;;;;;;9.68;4.43;;;7.70;96.70;;;;;;4974857;28;20787;-72
2023/01/31 02:05:12;;;;;;;10.40;4.68;;;7.70;96.70;;;;;;4983464;28;20121;-71
2023/01/31 02:07:43;;;;;;;11.63;5.15;;;7.60;96.70;;;;;;4966492;28;20196;-72
2023/01/31 02:10:15;;;;;;;11.13;5.47;;;7.50;96.70;;;;;;4983207;28;20505;-71
2023/01/31 02:12:43;;;;;;;11.00;5.10;;;7.40;96.70;;;;;;4980082;28;20073;-72
2023/01/31 02:15:11;;;;;;;9.38;3.97;;;7.40;96.70;;;;;;4980298;28;20043;-71
2023/01/31 02:17:39;;;;;;;9.25;4.35;;;7.30;96.70;;;;;;4982135;28;20528;-71
2023/01/31 02:20:35;;;;;;;10.90;4.68;;;7.30;96.70;;;;;;4982162;28;20042;-72
2023/01/31 02:23:46;;;;;;;12.82;4.40;;;7.30;96.70;;;;;;4990086;28;20058;-72
2023/01/31 02:26:52;;;;;;;8.93;4.03;;;7.30;96.70;;;;;;4980391;28;20080;-72
2023/01/31 02:29:33;;;;;;;10.15;4.05;;;7.10;96.70;;;;;;4966256;28;20046;-72
2023/01/31 02:32:26;;;;;;;11.50;4.25;;;7.20;96.70;;;;;;4980163;28;20054;-72
2023/01/31 02:35:05;;;;;;;10.13;4.55;;;7.10;96.70;;;;;;4981895;28;20173;-73
2023/01/31 02:37:43;;;;;;;11.75;4.13;;;7.10;96.70;;;;;;4980153;28;20074;-72
2023/01/31 02:40:20;;;;;;;7.78;3.75;;;7.10;96.70;;;;;;4979854;28;20039;-72
2023/01/31 02:42:58;;;;;;;9.45;4.15;;;7.10;96.70;;;;;;4981895;28;20057;-72
2023/01/31 02:45:35;;;;;;;10.93;4.57;;;7.10;96.70;;;;;;4983576;28;20047;-72
2023/01/31 02:48:14;;;;;;;10.25;3.80;;;7.10;96.70;;;;;;4978471;28;20054;-73
2023/01/31 02:50:57;;;;;;;10.35;4.22;;;7.00;96.70;;;;;;4978473;28;20066;-72
2023/01/31 02:53:33;;;;;;;10.27;4.25;;;7.00;96.70;;;;;;4959595;28;20511;-76
2023/01/31 02:56:16;;;;;;;10.45;4.25;;;7.00;96.70;;;;;;4973240;28;20054;-76
2023/01/31 02:58:51;;;;;;;10.02;4.30;;;7.00;96.70;;;;;;4963590;28;20349;-76
2023/01/31 03:01:24;;;;;;;8.27;4.22;;;7.00;96.70;;;;;;4983750;28;20050;-76
2023/01/31 03:03:57;;;;;;;6.85;4.10;;;6.90;96.70;;;;;;4984380;28;20054;-75
2023/01/31 03:06:59;;;;;;;11.45;3.95;;;6.90;96.70;;;;;;4985697;28;20050;-75
2023/01/31 03:09:38;;;;;;;8.10;4.22;;;6.80;96.70;;;;;;4963161;28;20050;-77
2023/01/31 03:12:21;;;;;;;7.47;3.85;;;6.90;96.70;;;;;;4979873;28;20065;-76
2023/01/31 03:15:00;;;;;;;9.95;4.30;;;6.90;96.70;;;;;;4985326;28;20153;-76
2023/01/31 03:17:35;;;;;;;7.85;3.95;;;6.90;96.70;;;;;;4986419;28;20049;-76
2023/01/31 03:20:11;;;;;;;12.57;5.10;;;6.80;96.70;;;;;;4980919;28;20061;-75
2023/01/31 03:22:43;;;;;;;11.40;4.82;;;6.80;96.70;;;;;;4985210;28;20109;-75
2023/01/31 03:25:14;;;;;;;8.85;4.60;;;6.70;96.70;;;;;;4986330;28;20047;-76
2023/01/31 03:27:51;;;;;;;9.77;4.90;;;6.70;96.70;;;;;;4985543;28;20061;-76
2023/01/31 03:30:25;;;;;;;8.25;4.60;;;6.80;96.70;;;;;;4983551;28;20038;-76
2023/01/31 03:32:58;;;;;;;15.85;4.75;;;6.70;96.70;;;;;;4985425;28;20053;-76
2023/01/31 03:35:30;;;;;;;9.50;4.97;;;6.70;96.70;;;;;;4984675;28;20046;-76
2023/01/31 03:38:05;;;;;;;8.07;3.78;;;6.60;96.70;;;;;;4985803;28;20078;-76
2023/01/31 03:40:37;;;;;;;9.02;4.43;;;6.60;96.70;;;;;;4983452;28;20050;-76
2023/01/31 03:43:13;;;;;;;11.02;5.28;;;6.60;96.70;;;;;;4982012;28;20080;-76
2023/01/31 03:45:49;;;;;;;9.50;4.32;;;6.60;96.70;;;;;;4984651;28;20051;-76
2023/01/31 03:48:21;;;;;;;9.65;4.55;;;6.60;96.70;;;;;;4984170;28;20050;-76
2023/01/31 03:50:56;;;;;;;11.52;4.35;;;6.60;96.70;;;;;;4985035;28;20435;-76
2023/01/31 03:53:31;;;;;;;7.50;3.83;;;6.70;96.70;;;;;;4985639;28;20070;-76
2023/01/31 03:56:03;;;;;;;8.35;4.50;;;6.60;96.70;;;;;;4984071;28;20046;-75
2023/01/31 03:58:37;;;;;;;8.82;3.72;;;6.60;96.70;;;;;;4961348;28;20069;-76
2023/01/31 04:01:08;;;;;;;9.93;4.15;;;6.60;96.70;;;;;;4986370;28;20046;-76
2023/01/31 04:03:40;;;;;;;9.75;3.60;;;6.60;96.70;;;;;;4968647;28;20058;-76
2023/01/31 04:06:10;;;;;;;7.05;3.75;;;6.50;96.70;;;;;;4981993;28;20138;-74
2023/01/31 04:08:39;;;;;;;7.40;3.22;;;6.50;96.70;;;;;;4967806;28;20513;-76
2023/01/31 04:11:12;;;;;;;11.38;3.92;;;6.50;96.70;;;;;;4983127;28;20144;-76
2023/01/31 04:13:41;;;;;;;11.05;4.43;;;6.50;96.70;;;;;;4985466;28;20160;-76
2023/01/31 04:16:08;;;;;;;11.65;4.32;;;6.40;96.70;;;;;;4984397;28;20069;-76
2023/01/31 04:18:36;;;;;;;12.85;4.55;;;6.30;96.70;;;;;;4984130;28;20489;-76
2023/01/31 04:21:05;;;;;;;10.18;4.55;;;6.30;96.70;;;;;;4984859;28;20050;-76
2023/01/31 04:23:34;;;;;;;9.18;4.68;;;6.30;96.70;;;;;;4984706;28;20464;-76
2023/01/31 04:26:02;;;;;;;8.48;4.65;;;6.30;96.70;;;;;;4983717;28;20061;-76
2023/01/31 04:28:30;;;;;;;11.80;4.40;;;6.30;96.70;;;;;;4984325;28;20669;-75
2023/01/31 04:30:58;;;;;;;10.38;4.32;;;6.20;96.70;;;;;;4976908;28;20038;-76
2023/01/31 04:33:26;;;;;;;8.60;4.75;;;6.20;96.70;;;;;;4968369;28;20054;-76
2023/01/31 04:35:53;;;;;;;9.38;4.82;;;6.30;96.70;;;;;;5000294;28;20038;-76
2023/01/31 04:38:21;;;;;;;9.25;5.20;;;6.30;96.70;;;;;;4985646;28;20755;-76
2023/01/31 04:40:50;;;;;;;9.70;4.82;;;6.30;96.70;;;;;;4964781;28;20050;-76
2023/01/31 04:43:18;;;;;;;10.80;5.38;;;6.20;96.70;;;;;;4984921;28;20057;-77
2023/01/31 04:45:46;;;;;;;12.52;5.18;;;6.20;96.70;;;;;;4983832;28;20051;-76
2023/01/31 04:48:14;;;;;;;10.02;5.40;;;6.10;96.70;;;;;;4980362;28;20035;-76
2023/01/31 04:50:41;;;;;;;13.57;6.05;;;6.10;96.70;;;;;;4982931;28;20504;-75
2023/01/31 04:53:09;;;;;;;12.95;6.00;;;6.10;96.70;;;;;;4983284;28;20042;-76
2023/01/31 04:55:36;;;;;;;10.13;5.15;;;6.10;96.70;;;;;;4984118;28;20066;-75
2023/01/31 04:58:07;;;;;;;12.75;5.13;;;6.10;96.70;;;;;;4983149;28;20046;-72
2023/01/31 05:00:35;;;;;;;11.38;5.55;;;6.10;96.70;;;;;;4984698;28;20495;-76
2023/01/31 05:03:03;;;;;;;15.95;7.20;;;6.10;96.70;;;;;;4983353;28;20050;-76
2023/01/31 05:05:32;;;;;;;10.07;5.63;;;6.00;96.70;;;;;;4981169;28;20042;-76
2023/01/31 05:08:03;;;;;;;12.65;5.50;;;5.90;96.70;;;;;;4974297;28;20397;-75
2023/01/31 05:10:31;;;;;;;12.65;5.25;;;5.90;96.70;;;;;;4981182;28;20046;-76
2023/01/31 05:12:59;;;;;;;9.13;5.40;;;5.90;96.70;;;;;;4978423;28;20589;-75
2023/01/31 05:15:28;;;;;;;10.38;5.13;;;5.80;96.70;;;;;;4984890;28;20484;-76
2023/01/31 05:18:01;;;;;;;10.10;4.57;;;5.60;96.70;;;;;;4981514;28;20046;-75
2023/01/31 05:20:31;;;;;;;12.88;4.68;;;5.60;96.70;;;;;;4981779;28;20049;-77
2023/01/31 05:22:59;;;;;;;8.48;3.95;;;5.70;96.70;;;;;;4983440;28;20038;-76
2023/01/31 05:25:27;;;;;;;9.50;4.22;;;5.80;96.70;;;;;;4980277;28;20451;-75
2023/01/31 05:27:55;;;;;;;10.13;4.55;;;5.70;96.70;;;;;;4982912;28;20042;-76
2023/01/31 05:30:23;;;;;;;10.90;4.38;;;5.70;96.70;;;;;;4983192;28;20054;-75
2023/01/31 05:32:53;;;;;;;9.32;4.13;;;5.70;96.70;;;;;;4983409;28;20045;-75
2023/01/31 05:35:21;;;;;;;12.90;4.55;;;5.70;96.70;;;;;;4983926;28;20042;-77
2023/01/31 05:37:51;;;;;;;8.93;4.18;;;5.60;96.70;;;;;;4984402;28;20108;-75
2023/01/31 05:40:19;;;;;;;9.10;3.53;;;5.60;96.70;;;;;;4984050;28;20583;-75
2023/01/31 05:42:53;;;;;;;12.45;4.10;;;5.50;96.70;;;;;;4977650;28;20042;-75
2023/01/31 05:45:22;;;;;;;9.13;3.80;;;5.50;96.70;;;;;;4982324;28;20404;-75
2023/01/31 05:47:50;;;;;;;8.70;3.90;;;5.50;96.70;;;;;;4984156;28;20679;-75
2023/01/31 05:50:20;;;;;;;11.38;4.60;;;5.50;96.70;;;;;;4983958;28;20077;-75
2023/01/31 05:52:51;;;;;;;12.57;4.95;;;5.60;96.70;;;;;;4984365;28;20044;-75
2023/01/31 05:55:20;;;;;;;13.60;4.68;;;5.60;96.70;;;;;;4976782;28;20174;-75
2023/01/31 05:57:48;;;;;;;9.05;3.60;;;5.50;96.70;;;;;;4983418;28;20065;-75
2023/01/31 06:00:16;;;;;;;14.32;4.88;;;5.40;96.70;;;;;;4984473;28;20108;-75
2023/01/31 06:02:44;;;;;;;11.82;5.25;;;5.40;96.70;;;;;;4982803;28;20050;-75
2023/01/31 06:05:12;;;;;;;15.15;7.15;;;5.40;96.70;;;;;;4982113;28;20050;-75
2023/01/31 06:07:42;;;;;;;29.70;14.60;;;5.40;96.70;;;;;;4980959;28;20069;-75
2023/01/31 06:10:12;;;;;;;23.17;10.85;;;5.30;96.70;;;;;;4984033;28;20050;-75
2023/01/31 06:12:40;;;;;;;15.02;7.53;;;5.30;96.70;;;;;;4984305;28;20128;-74
2023/01/31 06:15:11;;;;;;;14.38;6.40;;;5.30;96.70;;;;;;4975170;28;20050;-76
2023/01/31 06:17:39;;;;;;;15.57;7.18;;;5.30;96.70;;;;;;4973805;28;20043;-75
2023/01/31 06:20:09;;;;;;;16.58;8.02;;;5.30;96.70;;;;;;4982154;28;21127;-75
2023/01/31 06:22:36;;;;;;;14.52;6.88;;;5.30;96.70;;;;;;4982910;28;20046;-76
2023/01/31 06:25:07;;;;;;;13.88;7.10;;;5.20;96.70;;;;;;4974959;28;20049;-75
2023/01/31 06:27:35;;;;;;;15.80;7.57;;;5.20;96.70;;;;;;4966461;28;20055;-75
2023/01/31 06:30:03;;;;;;;17.83;7.28;;;5.00;96.70;;;;;;4981390;28;20050;-76
2023/01/31 06:32:31;;;;;;;14.40;7.28;;;5.10;96.70;;;;;;4959900;28;20046;-76
2023/01/31 06:34:59;;;;;;;12.52;6.15;;;5.10;96.70;;;;;;4966038;28;20089;-75
2023/01/31 06:37:27;;;;;;;14.35;5.60;;;5.10;96.70;;;;;;4981949;28;20117;-75
2023/01/31 06:39:55;;;;;;;13.27;6.30;;;5.10;96.70;;;;;;4978427;28;20619;-75
2023/01/31 06:42:24;;;;;;;17.52;6.05;;;5.10;96.70;;;;;;4983446;28;20046;-74
2023/01/31 06:44:52;;;;;;;14.40;6.05;;;5.10;96.70;;;;;;4981232;28;20069;-75
2023/01/31 06:47:20;;;;;;;13.68;6.55;;;5.10;96.70;;;;;;4982131;28;20042;-76
2023/01/31 06:49:48;;;;;;;14.18;5.63;;;5.10;96.70;;;;;;4981832;28;20129;-75
2023/01/31 06:52:15;;;;;;;11.25;5.53;;;5.10;96.70;;;;;;4982341;28;20042;-75
2023/01/31 06:54:43;;;;;;;11.77;4.93;;;5.10;96.70;;;;;;4973441;28;20046;-75
2023/01/31 06:57:11;;;;;;;8.98;5.10;;;5.20;96.70;;;;;;4980443;28;20076;-75
2023/01/31 06:59:40;;;;;;;13.60;6.00;;;5.10;96.70;;;;;;4975963;28;20034;-75
2023/01/31 07:02:09;;;;;;;11.93;6.15;;;5.00;96.70;;;;;;4980392;28;20689;-75
2023/01/31 07:04:37;;;;;;;11.88;5.95;;;4.90;96.70;;;;;;4965568;28;20967;-75
2023/01/31 07:07:05;;;;;;;20.70;8.77;;;5.00;96.70;;;;;;4981757;28;20062;-75
2023/01/31 07:09:33;;;;;;;18.45;9.27;;;5.00;96.70;;;;;;4979863;28;20101;-75
2023/01/31 07:12:01;;;;;;;17.42;8.70;;;5.00;96.70;;;;;;4979631;28;20042;-75
2023/01/31 07:14:29;;;;;;;20.77;7.53;;;5.10;96.70;;;;;;4981684;28;20097;-74
2023/01/31 07:16:59;;;;;;;15.32;7.88;;;5.10;96.70;;;;;;4981131;28;20129;-77
2023/01/31 07:19:27;;;;;;;16.55;7.05;;;5.10;96.70;;;;;;4983268;28;20042;-74
2023/01/31 07:21:55;;;;;;;14.18;8.13;;;5.20;96.70;;;;;;4983054;28;20046;-74
2023/01/31 07:24:22;;;;;;;13.63;6.82;;;5.10;96.70;;;;;;4964770;28;20055;-74
2023/01/31 07:26:52;;;;;;;10.80;6.40;;;5.10;96.70;;;;;;4976696;28;20038;-74
2023/01/31 07:29:20;;;;;;;13.25;6.03;;;5.10;96.70;;;;;;4981367;28;20057;-75
2023/01/31 07:31:48;;;;;;;10.25;5.68;;;5.10;96.70;;;;;;4976309;28;20038;-74
2023/01/31 07:34:20;;;;;;;14.27;5.75;;;5.20;96.70;;;;;;4982146;28;20108;-74
2023/01/31 07:36:47;;;;;;;12.95;5.93;;;5.30;96.70;;;;;;4981673;28;20573;-73
2023/01/31 07:39:16;;;;;;;12.98;5.80;;;5.30;96.70;;;;;;4982589;28;20047;-75
2023/01/31 07:41:43;;;;;;;14.85;6.20;;;5.30;96.70;;;;;;4976152;28;20050;-74
2023/01/31 07:44:13;;;;;;;14.23;5.72;;;5.40;96.70;;;;;;4974258;28;20141;-75
2023/01/31 07:46:41;;;;;;;9.68;5.45;;;5.40;96.70;;;;;;4977558;28;20049;-77
2023/01/31 07:49:10;;;;;;;12.82;5.25;;;5.50;96.70;;;;;;4984420;28;20047;-72
2023/01/31 07:51:39;;;;;;;16.50;6.60;;;5.50;96.70;;;;;;4982575;28;20039;-74
2023/01/31 07:54:09;;;;;;;13.55;5.40;;;5.50;96.70;;;;;;4968786;28;20069;-74
2023/01/31 07:56:37;;;;;;;12.60;6.05;;;5.60;96.70;;;;;;4985617;28;20038;-74
2023/01/31 07:59:05;;;;;;;12.82;6.00;;;5.60;96.70;;;;;;4967169;28;20500;-75
2023/01/31 08:04:19;;;;;;;13.55;6.10;;;5.70;96.70;;;;;;4973391;28;20101;-75
2023/01/31 08:06:54;;;;;;;9.85;5.35;;;6.10;96.70;;;;;;4979884;28;20071;-78
2023/01/31 08:09:23;;;;;;;13.85;6.63;;;6.30;96.70;;;;;;4981888;28;20239;-78
2023/01/31 08:11:51;;;;;;;10.48;5.75;;;6.40;96.70;;;;;;4983690;28;20050;-74
2023/01/31 08:14:24;;;;;;;12.93;6.15;;;6.50;96.70;;;;;;4985219;28;20141;-75
2023/01/31 08:16:52;;;;;;;13.30;5.65;;;6.50;96.70;;;;;;4984170;28;20050;-74
2023/01/31 08:19:20;;;;;;;12.30;5.20;;;6.50;96.70;;;;;;4979885;28;20035;-74
2023/01/31 08:21:48;;;;;;;11.98;5.95;;;6.50;96.70;;;;;;4985362;28;20073;-74
2023/01/31 08:24:17;;;;;;;10.30;5.60;;;6.50;96.70;;;;;;4968103;28;20050;-74
2023/01/31 08:26:45;;;;;;;12.30;5.20;;;6.60;96.70;;;;;;4999191;28;20128;-74
2023/01/31 08:29:13;;;;;;;12.60;5.47;;;6.70;96.70;;;;;;4982773;28;20141;-75
2023/01/31 08:31:41;;;;;;;10.98;5.20;;;6.80;96.70;;;;;;4978905;28;20053;-73
2023/01/31 08:34:10;;;;;;;12.45;5.72;;;6.70;96.70;;;;;;4979830;28;20046;-75
2023/01/31 08:36:37;;;;;;;8.98;5.35;;;6.60;96.70;;;;;;4985486;28;20492;-75
2023/01/31 08:39:05;;;;;;;11.00;5.10;;;6.60;96.70;;;;;;4976374;28;20046;-75
2023/01/31 08:41:36;;;;;;;10.40;5.18;;;6.60;96.70;;;;;;4984295;28;20516;-75
2023/01/31 08:44:04;;;;;;;10.65;5.18;;;6.60;96.70;;;;;;4979253;28;21378;-76
2023/01/31 08:46:34;;;;;;;11.95;5.90;;;6.70;96.70;;;;;;4983191;28;20496;-75
2023/01/31 08:49:03;;;;;;;11.38;5.85;;;6.70;96.70;;;;;;4979271;28;20038;-74
2023/01/31 08:51:32;;;;;;;14.40;5.80;;;6.80;96.70;;;;;;4979105;28;20105;-74
2023/01/31 08:54:01;;;;;;;13.35;5.97;;;6.80;96.70;;;;;;4967415;28;20064;-75
2023/01/31 08:56:29;;;;;;;9.82;6.13;;;6.80;96.70;;;;;;4980786;28;20157;-74
2023/01/31 08:58:58;;;;;;;11.18;6.45;;;6.90;96.70;;;;;;4979171;28;20097;-74
2023/01/31 09:01:26;;;;;;;11.48;6.18;;;6.90;96.70;;;;;;4985734;28;20148;-73
2023/01/31 09:03:56;;;;;;;11.85;6.53;;;6.90;96.70;;;;;;4983146;28;20153;-74
2023/01/31 09:06:26;;;;;;;11.77;5.88;;;7.00;96.70;;;;;;4984503;28;20653;-75
2023/01/31 09:08:56;;;;;;;12.75;6.13;;;7.10;96.70;;;;;;4983503;28;20146;-74
2023/01/31 09:11:26;;;;;;;13.10;6.20;;;7.20;96.70;;;;;;4982319;28;20124;-74
2023/01/31 09:13:57;;;;;;;9.95;6.30;;;7.30;96.70;;;;;;4984253;28;20042;-74
2023/01/31 09:16:24;;;;;;;11.85;6.45;;;7.40;96.70;;;;;;4980742;28;20045;-75
2023/01/31 09:18:53;;;;;;;10.57;6.72;;;7.50;96.70;;;;;;4967209;28;20046;-74
2023/01/31 09:21:21;;;;;;;13.20;7.50;;;7.50;96.70;;;;;;4978493;28;20053;-77
2023/01/31 09:23:54;;;;;;;13.88;6.72;;;7.60;96.70;;;;;;4980050;28;20046;-77
2023/01/31 09:26:22;;;;;;;13.75;6.82;;;7.70;96.70;;;;;;4962402;28;20054;-75
2023/01/31 09:28:50;;;;;;;10.35;5.53;;;7.90;96.70;;;;;;4983059;28;20034;-74
2023/01/31 09:31:20;;;;;;;11.48;6.53;;;7.90;96.70;;;;;;4984718;28;20046;-75
2023/01/31 09:33:48;;;;;;;10.70;6.60;;;8.00;96.70;;;;;;4978497;28;20070;-77
2023/01/31 09:36:18;;;;;;;12.20;7.18;;;8.10;96.70;;;;;;4984397;28;20051;-75
2023/01/31 09:38:46;;;;;;;13.55;6.65;;;8.20;96.70;;;;;;4964082;28;20571;-75
2023/01/31 09:41:22;;;;;;;16.55;6.90;;;8.30;96.70;;;;;;4980743;28;20038;-76
2023/01/31 09:43:54;;;;;;;17.90;7.60;;;8.40;96.70;;;;;;4981342;28;20034;-75
2023/01/31 09:46:28;;;;;;;16.48;8.07;;;8.50;96.70;;;;;;4984699;28;20049;-75
2023/01/31 09:48:58;;;;;;;18.15;9.80;;;8.60;96.70;;;;;;4982986;28;20129;-74
2023/01/31 09:51:27;;;;;;;17.70;9.85;;;8.60;96.70;;;;;;4990357;28;20204;-74
2023/01/31 09:53:56;;;;;;;20.65;11.05;;;8.70;96.70;;;;;;4981803;28;20136;-75
2023/01/31 09:56:33;;;;;;;15.93;9.43;;;8.90;96.70;;;;;;4982744;28;20476;-73
2023/01/31 09:59:09;;;;;;;14.07;9.45;;;9.00;96.70;;;;;;4983694;28;20053;-75
2023/01/31 10:01:48;;;;;;;12.30;6.97;;;9.00;96.70;;;;;;4980727;28;20530;-76
2023/01/31 10:04:43;;;;;;;12.98;6.95;;;9.20;96.70;;;;;;4981719;28;20149;-74
2023/01/31 10:07:17;;;;;;;12.93;6.82;;;9.30;96.70;;;;;;4978152;28;20058;-74
2023/01/31 10:09:52;;;;;;;14.02;6.85;;;9.40;96.70;;;;;;4977606;28;20062;-74
2023/01/31 10:12:26;;;;;;;9.70;6.45;;;9.50;96.70;;;;;;4981381;28;20234;-75
2023/01/31 10:14:57;;;;;;;15.38;7.32;;;9.60;96.70;;;;;;4979845;28;20050;-75
2023/01/31 10:17:31;;;;;;;10.85;6.63;;;9.70;96.70;;;;;;4984270;28;20124;-75
2023/01/31 10:20:04;;;;;;;11.55;6.75;;;9.80;96.70;;;;;;4980754;28;20478;-75
2023/01/31 10:22:43;;;;;;;12.95;6.32;;;9.90;96.70;;;;;;4976065;28;20132;-74
2023/01/31 10:25:22;;;;;;;11.27;6.05;;;9.90;96.70;;;;;;4980281;28;20504;-76
2023/01/31 10:27:56;;;;;;;11.70;5.63;;;10.00;96.70;;;;;;4961840;28;20054;-77
2023/01/31 10:30:28;;;;;;;11.95;5.75;;;10.00;96.70;;;;;;4981302;28;20716;-75
2023/01/31 10:33:04;;;;;;;10.02;6.13;;;10.10;96.70;;;;;;4982015;28;20100;-76
2023/01/31 10:35:39;;;;;;;12.83;6.63;;;10.20;96.70;;;;;;4984330;28;20042;-75
2023/01/31 10:38:14;;;;;;;11.50;6.28;;;10.30;96.70;;;;;;4982027;28;20100;-72
2023/01/31 10:40:47;;;;;;;10.20;5.75;;;10.40;96.70;;;;;;4983088;28;20221;-73
2023/01/31 10:43:21;;;;;;;11.18;5.55;;;10.50;96.70;;;;;;4983037;28;20042;-73
2023/01/31 10:45:49;;;;;;;10.93;5.60;;;10.50;96.70;;;;;;4982141;28;20062;-73
2023/01/31 10:48:26;;;;;;;8.60;5.22;;;10.60;96.70;;;;;;4983792;28;20074;-73
2023/01/31 10:51:02;;;;;;;10.40;6.20;;;10.60;96.70;;;;;;4983629;28;20432;-73
2023/01/31 10:53:43;;;;;;;14.38;8.00;;;10.80;96.70;;;;;;4982151;28;20046;-72
2023/01/31 10:56:19;;;;;;;9.57;5.68;;;10.80;96.70;;;;;;4983454;28;20481;-72
2023/01/31 10:58:49;;;;;;;12.82;6.22;;;10.80;96.70;;;;;;4983196;28;20594;-73
2023/01/31 11:01:16;;;;;;;14.55;6.68;;;10.80;96.70;;;;;;4982055;28;20640;-72
2023/01/31 11:03:49;;;;;;;11.27;5.93;;;10.90;96.70;;;;;;4983101;28;20046;-73
2023/01/31 11:06:18;;;;;;;12.45;5.65;;;10.90;96.70;;;;;;4981653;28;20484;-73
2023/01/31 11:08:48;;;;;;;13.55;6.22;;;11.00;96.70;;;;;;4981959;28;20046;-72
2023/01/31 11:11:18;;;;;;;9.32;4.90;;;11.10;96.70;;;;;;4980945;28;20077;-72
2023/01/31 11:13:57;;;;;;;11.18;5.70;;;11.10;96.70;;;;;;4982035;28;20513;-73
2023/01/31 11:16:26;;;;;;;11.73;5.85;;;11.10;96.70;;;;;;4982127;28;20050;-73
2023/01/31 11:18:57;;;;;;;10.13;6.15;;;11.20;96.70;;;;;;4981959;28;20504;-73
2023/01/31 11:21:29;;;;;;;12.77;5.80;;;11.30;96.70;;;;;;4981198;28;20046;-72
2023/01/31 11:24:02;;;;;;;13.00;6.03;;;11.40;96.70;;;;;;4983579;28;20125;-73
2023/01/31 11:26:32;;;;;;;8.65;5.15;;;11.50;96.70;;;;;;4985069;28;20133;-73
2023/01/31 11:29:01;;;;;;;13.07;6.18;;;11.60;96.70;;;;;;4987235;28;20341;-73
2023/01/31 11:31:33;;;;;;;9.93;5.78;;;11.60;96.70;;;;;;4985053;28;20129;-73
2023/01/31 11:34:16;;;;;;;8.55;5.35;;;11.80;96.70;;;;;;4985377;28;20089;-74
2023/01/31 11:36:45;;;;;;;17.45;5.57;;;11.90;96.70;;;;;;4980981;28;20054;-76
2023/01/31 11:39:28;;;;;;;8.30;5.03;;;12.00;96.70;;;;;;4985275;28;20042;-76
2023/01/31 11:42:03;;;;;;;11.65;5.35;;;12.00;96.70;;;;;;4984961;28;20050;-76
2023/01/31 11:44:32;;;;;;;6.75;4.63;;;12.00;96.70;;;;;;4985112;28;20057;-76
2023/01/31 11:47:03;;;;;;;9.80;5.15;;;12.20;96.70;;;;;;4985007;28;20046;-76
2023/01/31 11:49:35;;;;;;;9.27;4.97;;;12.40;96.70;;;;;;4985081;28;20401;-76
2023/01/31 11:52:14;;;;;;;7.22;4.95;;;12.60;96.70;;;;;;4985723;28;20046;-76
2023/01/31 11:54:49;;;;;;;8.05;5.20;;;12.50;96.70;;;;;;4987256;28;20049;-76
2023/01/31 11:57:22;;;;;;;8.90;5.25;;;12.60;96.70;;;;;;4988279;28;20182;-73
2023/01/31 11:59:53;;;;;;;10.85;5.88;;;12.70;96.70;;;;;;4990429;28;20050;-76
2023/01/31 12:02:31;;;;;;;8.68;5.50;;;12.80;96.70;;;;;;4986306;28;20050;-76
2023/01/31 12:05:07;;;;;;;12.10;5.22;;;13.00;96.70;;;;;;4984812;28;20132;-76
2023/01/31 12:07:43;;;;;;;10.25;6.25;;;13.00;96.70;;;;;;4984598;28;20062;-76
2023/01/31 12:10:34;;;;;;;9.25;5.15;;;13.20;96.70;;;;;;4984146;28;20050;-76
2023/01/31 12:13:11;;;;;;;9.13;5.50;;;13.10;96.70;;;;;;4980004;28;20555;-76
2023/01/31 12:15:54;;;;;;;9.27;4.80;;;13.20;96.70;;;;;;4986047;28;20276;-74
2023/01/31 12:18:37;;;;;;;9.75;4.72;;;13.40;96.70;;;;;;4984719;28;20070;-78
2023/01/31 12:21:14;;;;;;;9.02;4.43;;;13.60;96.70;;;;;;4984091;28;20038;-78
2023/01/31 12:23:55;;;;;;;8.38;4.85;;;13.90;96.70;;;;;;4985882;28;20047;-76
2023/01/31 12:26:33;;;;;;;10.05;5.30;;;13.90;96.70;;;;;;4978979;28;20129;-76
2023/01/31 12:29:19;;;;;;;7.25;5.03;;;14.00;96.70;;;;;;4984467;28;20610;-76
2023/01/31 12:32:05;;;;;;;8.40;4.40;;;14.10;96.70;;;;;;4984314;28;20059;-76
2023/01/31 12:35:15;;;;;;;11.43;5.05;;;14.20;96.70;;;;;;4983857;28;20073;-74
2023/01/31 12:37:59;;;;;;;6.80;4.05;;;14.30;96.70;;;;;;4979052;28;20063;-74
2023/01/31 12:40:37;;;;;;;8.52;4.35;;;14.20;96.70;;;;;;4985696;28;20073;-76
2023/01/31 12:43:19;;;;;;;9.13;4.10;;;14.30;96.70;;;;;;4983913;28;20041;-76
2023/01/31 12:45:58;;;;;;;7.57;4.97;;;14.50;96.70;;;;;;4983969;28;20077;-76
2023/01/31 12:49:11;;;;;;;7.70;4.38;;;14.70;96.70;;;;;;4969073;28;20042;-76
2023/01/31 12:51:44;;;;;;;7.57;4.25;;;14.90;96.70;;;;;;4936295;28;20050;-75
2023/01/31 12:54:33;;;;;;;7.38;3.72;;;15.00;96.70;;;;;;4983902;28;20113;-76
2023/01/31 12:57:13;;;;;;;7.53;4.00;;;14.90;96.70;;;;;;4978680;28;20381;-76
2023/01/31 12:59:49;;;;;;;8.77;4.35;;;14.90;96.70;;;;;;4985214;28;20477;-76
2023/01/31 13:02:40;;;;;;;9.35;4.05;;;15.00;96.70;;;;;;4984054;28;20042;-76
2023/01/31 13:05:19;;;;;;;7.30;3.40;;;15.10;96.70;;;;;;4978671;28;20046;-76
2023/01/31 13:07:51;;;;;;;8.43;4.22;;;15.00;96.70;;;;;;4981953;28;20508;-76
2023/01/31 13:10:33;;;;;;;10.40;4.80;;;15.00;96.70;;;;;;4967124;28;20046;-75
2023/01/31 13:13:04;;;;;;;6.18;3.92;;;15.00;96.70;;;;;;4985130;28;20420;-76
2023/01/31 13:15:39;;;;;;;8.60;4.45;;;15.00;96.70;;;;;;4983276;28;20054;-76
2023/01/31 13:18:10;;;;;;;9.75;4.93;;;15.10;96.70;;;;;;4982938;28;20077;-76